Time;durP1;ratioP1;P1;durP2;ratioP2;P2;SDS_P1;SDS_P2;PMS_P1;PMS_P2;Temp;Humidity;BMP_temperature;BMP_pressure;BME280_temperature;BME280_humidity;BME280_pressure;Samples;Min_cycle;Max_cycle;Signal;HPM_P1;HPM_P2
2024/01/30 00:00:00;;;;;;;23.25;13.40;;;;;;;;;;4973940;28;20058;-66
2024/01/30 00:02:26;;;;;;;23.35;13.00;;;;;;;;;;4974895;28;20069;-66
2024/01/30 00:04:53;;;;;;;18.98;12.30;;;;;;;;;;4974074;28;21200;-66
2024/01/30 00:07:19;;;;;;;18.70;13.02;;;;;;;;;;4974564;28;20041;-66
2024/01/30 00:09:47;;;;;;;20.45;12.90;;;;;;;;;;4972276;28;20041;-66
2024/01/30 00:12:13;;;;;;;19.75;12.40;;;;;;;;;;4974365;28;20327;-66
2024/01/30 00:14:43;;;;;;;20.33;12.68;;;;;;;;;;4957815;28;20112;-66
2024/01/30 00:17:09;;;;;;;17.55;12.20;;;;;;;;;;4972857;28;20026;-66
2024/01/30 00:19:35;;;;;;;21.77;12.73;;;;;;;;;;4973295;28;20047;-66
2024/01/30 00:22:01;;;;;;;20.77;12.65;;;;;;;;;;4974556;28;20026;-66
2024/01/30 00:24:27;;;;;;;19.52;13.05;;;;;;;;;;4972686;28;20077;-66
2024/01/30 00:26:53;;;;;;;19.45;13.23;;;;;;;;;;4972057;28;20041;-66
2024/01/30 00:29:19;;;;;;;19.10;12.15;;;;;;;;;;4973516;28;20069;-66
2024/01/30 00:31:49;;;;;;;20.15;12.43;;;;;;;;;;4972576;28;20037;-66
2024/01/30 00:34:15;;;;;;;19.80;12.70;;;;;;;;;;4972019;28;20037;-66
2024/01/30 00:36:41;;;;;;;31.83;13.57;;;;;;;;;;4972086;28;20026;-66
2024/01/30 00:39:09;;;;;;;20.33;14.23;;;;;;;;;;4975787;28;20046;-66
2024/01/30 00:41:35;;;;;;;19.02;13.23;;;;;;;;;;4981576;28;20022;-66
2024/01/30 00:44:01;;;;;;;18.15;13.13;;;;;;;;;;4981550;28;20049;-66
2024/01/30 00:46:27;;;;;;;18.67;13.07;;;;;;;;;;4981728;28;20068;-66
2024/01/30 00:48:53;;;;;;;17.38;12.70;;;;;;;;;;4982679;28;21319;-66
2024/01/30 00:51:19;;;;;;;20.10;12.82;;;;;;;;;;4982287;28;20031;-66
2024/01/30 00:53:46;;;;;;;20.10;13.00;;;;;;;;;;4981851;28;20415;-66
2024/01/30 00:56:12;;;;;;;21.40;12.90;;;;;;;;;;4981784;28;20115;-66
2024/01/30 00:58:38;;;;;;;21.48;13.70;;;;;;;;;;4981768;28;20711;-66
2024/01/30 01:01:04;;;;;;;19.27;13.00;;;;;;;;;;4982606;28;20493;-66
2024/01/30 01:03:30;;;;;;;18.67;14.02;;;;;;;;;;4981276;28;20370;-66
2024/01/30 01:05:56;;;;;;;21.10;13.88;;;;;;;;;;4981037;28;20079;-66
2024/01/30 01:08:22;;;;;;;20.50;13.88;;;;;;;;;;4982013;28;20704;-66
2024/01/30 01:10:48;;;;;;;19.80;14.23;;;;;;;;;;4981646;28;20943;-66
2024/01/30 01:13:14;;;;;;;20.00;13.88;;;;;;;;;;4981553;28;20463;-66
2024/01/30 01:15:40;;;;;;;20.52;13.85;;;;;;;;;;4966568;28;20381;-66
2024/01/30 01:18:06;;;;;;;19.73;14.30;;;;;;;;;;4982124;28;20126;-66
2024/01/30 01:20:32;;;;;;;20.20;14.07;;;;;;;;;;4980801;28;20033;-66
2024/01/30 01:22:58;;;;;;;18.13;13.70;;;;;;;;;;4982255;28;20027;-66
2024/01/30 01:25:24;;;;;;;21.25;14.38;;;;;;;;;;4981812;28;20031;-66
2024/01/30 01:27:53;;;;;;;18.17;13.95;;;;;;;;;;4980855;28;20034;-66
2024/01/30 01:30:21;;;;;;;25.90;14.18;;;;;;;;;;4980477;28;20447;-66
2024/01/30 01:32:54;;;;;;;20.63;14.23;;;;;;;;;;4981787;28;20033;-66
2024/01/30 01:35:27;;;;;;;18.70;13.23;;;;;;;;;;4981549;28;20030;-66
2024/01/30 01:37:59;;;;;;;19.40;13.50;;;;;;;;;;4981389;28;20034;-66
2024/01/30 01:40:25;;;;;;;18.48;13.45;;;;;;;;;;4981449;28;20290;-66
2024/01/30 01:42:52;;;;;;;18.50;13.68;;;;;;;;;;4981849;28;20634;-66
2024/01/30 01:45:18;;;;;;;20.30;13.75;;;;;;;;;;4981091;28;20035;-66
2024/01/30 01:47:46;;;;;;;20.27;12.93;;;;;;;;;;4981176;28;20034;-66
2024/01/30 01:50:13;;;;;;;19.15;12.90;;;;;;;;;;4980669;28;21045;-66
2024/01/30 01:52:40;;;;;;;22.17;14.55;;;;;;;;;;4980773;28;20045;-66
2024/01/30 01:55:06;;;;;;;20.85;15.27;;;;;;;;;;4980134;28;21046;-66
2024/01/30 01:57:32;;;;;;;19.05;14.23;;;;;;;;;;4980878;28;20545;-66
2024/01/30 01:59:59;;;;;;;18.52;13.30;;;;;;;;;;4980621;28;20025;-66
2024/01/30 02:02:25;;;;;;;25.70;14.73;;;;;;;;;;4979646;28;20104;-66
2024/01/30 02:04:51;;;;;;;20.17;13.82;;;;;;;;;;4980114;28;20038;-66
2024/01/30 02:07:17;;;;;;;19.95;14.38;;;;;;;;;;4980515;28;20117;-68
2024/01/30 02:09:43;;;;;;;20.88;13.95;;;;;;;;;;4980153;28;22226;-66
2024/01/30 02:12:09;;;;;;;18.10;13.82;;;;;;;;;;4980544;28;21047;-66
2024/01/30 02:14:45;;;;;;;20.98;15.80;;;;;;;;;;4980161;28;20730;-66
2024/01/30 02:17:11;;;;;;;20.33;13.77;;;;;;;;;;4980416;28;20018;-66
2024/01/30 02:19:37;;;;;;;22.15;14.07;;;;;;;;;;4980433;28;20022;-66
2024/01/30 02:22:03;;;;;;;20.05;14.23;;;;;;;;;;4980621;28;21780;-66
2024/01/30 02:24:29;;;;;;;21.27;14.48;;;;;;;;;;4978488;28;20122;-66
2024/01/30 02:26:56;;;;;;;19.70;14.43;;;;;;;;;;4978445;28;20030;-66
2024/01/30 02:29:22;;;;;;;22.08;13.80;;;;;;;;;;4980261;28;20104;-66
2024/01/30 02:31:48;;;;;;;20.45;14.73;;;;;;;;;;4980194;28;21834;-66
2024/01/30 02:34:14;;;;;;;19.45;15.13;;;;;;;;;;4979200;28;20124;-66
2024/01/30 02:36:43;;;;;;;21.30;13.93;;;;;;;;;;4979717;28;20037;-66
2024/01/30 02:39:10;;;;;;;20.15;14.75;;;;;;;;;;4979339;28;20527;-66
2024/01/30 02:41:36;;;;;;;23.52;16.75;;;;;;;;;;4976817;28;20099;-66
2024/01/30 02:44:02;;;;;;;21.00;14.77;;;;;;;;;;4976908;28;20080;-66
2024/01/30 02:46:28;;;;;;;21.88;15.50;;;;;;;;;;4976548;28;20064;-66
2024/01/30 02:48:54;;;;;;;24.17;15.20;;;;;;;;;;4975176;28;20129;-66
2024/01/30 02:51:21;;;;;;;20.50;14.40;;;;;;;;;;4977060;28;20042;-66
2024/01/30 02:53:47;;;;;;;20.10;14.95;;;;;;;;;;4975581;28;21048;-66
2024/01/30 02:56:13;;;;;;;20.13;14.82;;;;;;;;;;4975351;28;20104;-66
2024/01/30 02:58:40;;;;;;;20.52;13.98;;;;;;;;;;4976852;28;20026;-66
2024/01/30 03:01:06;;;;;;;18.95;13.80;;;;;;;;;;4975335;28;20031;-66
2024/01/30 03:03:35;;;;;;;21.95;13.38;;;;;;;;;;4977298;28;20035;-66
2024/01/30 03:06:01;;;;;;;21.63;13.65;;;;;;;;;;4975331;28;20023;-66
2024/01/30 03:08:27;;;;;;;17.83;13.30;;;;;;;;;;4977079;28;20605;-66
2024/01/30 03:10:54;;;;;;;19.15;13.38;;;;;;;;;;4960906;28;20133;-66
2024/01/30 03:13:20;;;;;;;19.92;13.98;;;;;;;;;;4977400;28;20066;-66
2024/01/30 03:15:46;;;;;;;21.15;13.88;;;;;;;;;;4977212;28;20053;-66
2024/01/30 03:18:12;;;;;;;19.40;13.85;;;;;;;;;;4964665;28;20145;-66
2024/01/30 03:20:39;;;;;;;20.85;15.52;;;;;;;;;;4979671;28;20030;-66
2024/01/30 03:23:05;;;;;;;20.90;14.27;;;;;;;;;;4980900;28;20034;-66
2024/01/30 03:25:31;;;;;;;18.85;13.95;;;;;;;;;;4979266;28;20049;-66
2024/01/30 03:27:57;;;;;;;20.35;13.60;;;;;;;;;;4980505;28;20684;-66
2024/01/30 03:30:23;;;;;;;18.73;14.05;;;;;;;;;;4980210;28;21923;-66
2024/01/30 03:32:50;;;;;;;19.33;13.48;;;;;;;;;;4979675;28;20031;-66
2024/01/30 03:35:16;;;;;;;19.45;14.25;;;;;;;;;;4979128;28;20029;-66
2024/01/30 03:37:42;;;;;;;26.50;14.65;;;;;;;;;;4979666;28;20405;-66
2024/01/30 03:40:08;;;;;;;20.58;14.23;;;;;;;;;;4981155;28;20056;-66
2024/01/30 03:42:34;;;;;;;18.75;13.02;;;;;;;;;;4984463;28;20720;-66
2024/01/30 03:45:00;;;;;;;20.52;13.43;;;;;;;;;;4983728;28;20061;-67
2024/01/30 03:47:26;;;;;;;18.15;13.98;;;;;;;;;;4983360;28;20034;-67
2024/01/30 03:49:52;;;;;;;22.33;13.05;;;;;;;;;;4983507;28;20042;-67
2024/01/30 03:52:18;;;;;;;18.50;13.05;;;;;;;;;;4982925;28;20053;-67
2024/01/30 03:54:44;;;;;;;16.88;12.23;;;;;;;;;;4982537;28;20038;-67
2024/01/30 03:57:10;;;;;;;18.65;13.32;;;;;;;;;;4983021;28;20030;-67
2024/01/30 03:59:36;;;;;;;22.08;13.88;;;;;;;;;;4983164;28;20068;-67
2024/01/30 04:02:03;;;;;;;19.65;13.63;;;;;;;;;;4963609;28;20042;-67
2024/01/30 04:04:29;;;;;;;18.27;12.90;;;;;;;;;;4963762;28;20084;-67
2024/01/30 04:06:55;;;;;;;16.80;12.80;;;;;;;;;;4983411;28;20038;-67
2024/01/30 04:09:21;;;;;;;22.20;14.40;;;;;;;;;;4982689;28;20026;-67
2024/01/30 04:11:47;;;;;;;16.98;12.82;;;;;;;;;;4982876;28;20038;-67
2024/01/30 04:14:13;;;;;;;20.17;13.75;;;;;;;;;;4983329;28;21857;-67
2024/01/30 04:16:39;;;;;;;22.60;13.38;;;;;;;;;;4983938;28;20042;-67
2024/01/30 04:19:05;;;;;;;25.02;14.20;;;;;;;;;;4982509;28;20034;-67
2024/01/30 04:21:31;;;;;;;18.90;13.10;;;;;;;;;;4984247;28;20060;-67
2024/01/30 04:23:57;;;;;;;22.83;13.98;;;;;;;;;;4982651;28;20031;-67
2024/01/30 04:26:23;;;;;;;19.38;13.23;;;;;;;;;;4981081;28;20817;-67
2024/01/30 04:28:49;;;;;;;20.15;13.52;;;;;;;;;;4983556;28;20056;-67
2024/01/30 04:31:15;;;;;;;18.85;12.98;;;;;;;;;;4981273;28;20045;-67
2024/01/30 04:33:41;;;;;;;17.92;12.23;;;;;;;;;;4983198;28;20038;-67
2024/01/30 04:36:12;;;;;;;19.75;12.63;;;;;;;;;;4982042;28;20038;-67
2024/01/30 04:38:39;;;;;;;17.52;11.68;;;;;;;;;;4983029;28;21166;-67
2024/01/30 04:41:05;;;;;;;19.88;12.77;;;;;;;;;;4980119;28;20769;-67
2024/01/30 04:43:31;;;;;;;19.65;12.73;;;;;;;;;;4982487;28;20050;-67
2024/01/30 04:45:57;;;;;;;22.50;13.05;;;;;;;;;;4983020;28;20038;-67
2024/01/30 04:48:23;;;;;;;20.23;12.95;;;;;;;;;;4969521;28;20030;-67
2024/01/30 04:50:49;;;;;;;22.73;12.52;;;;;;;;;;4983390;28;20049;-67
2024/01/30 04:53:15;;;;;;;19.65;11.88;;;;;;;;;;4981799;28;20046;-67
2024/01/30 04:55:41;;;;;;;18.55;12.73;;;;;;;;;;4981684;28;21005;-67
2024/01/30 04:58:07;;;;;;;15.90;11.88;;;;;;;;;;4981969;28;20026;-67
2024/01/30 05:00:33;;;;;;;15.40;11.40;;;;;;;;;;4982266;28;20337;-67
2024/01/30 05:02:59;;;;;;;16.20;12.00;;;;;;;;;;4982314;28;20192;-67
2024/01/30 05:05:25;;;;;;;18.48;12.35;;;;;;;;;;4963480;28;20034;-67
2024/01/30 05:07:52;;;;;;;17.52;12.27;;;;;;;;;;4981121;28;20037;-67
2024/01/30 05:10:18;;;;;;;18.05;12.27;;;;;;;;;;4983021;28;20485;-67
2024/01/30 05:12:44;;;;;;;18.15;12.65;;;;;;;;;;4981562;28;20046;-67
2024/01/30 05:15:10;;;;;;;21.55;12.40;;;;;;;;;;4982850;28;20034;-67
2024/01/30 05:17:36;;;;;;;18.85;12.40;;;;;;;;;;4982336;28;20038;-67
2024/01/30 05:20:02;;;;;;;17.70;12.32;;;;;;;;;;4981045;28;20046;-67
2024/01/30 05:22:28;;;;;;;16.48;11.60;;;;;;;;;;4964512;28;20034;-67
2024/01/30 05:24:54;;;;;;;18.23;11.43;;;;;;;;;;4980523;28;20129;-67
2024/01/30 05:27:20;;;;;;;18.40;12.35;;;;;;;;;;4981078;28;20217;-67
2024/01/30 05:29:46;;;;;;;18.13;12.32;;;;;;;;;;4981314;28;20038;-67
2024/01/30 05:32:12;;;;;;;18.00;11.63;;;;;;;;;;4982007;28;20140;-67
2024/01/30 05:34:38;;;;;;;20.80;12.07;;;;;;;;;;4981983;28;20077;-67
2024/01/30 05:37:05;;;;;;;20.63;11.65;;;;;;;;;;4963699;28;20034;-67
2024/01/30 05:39:32;;;;;;;14.77;10.73;;;;;;;;;;4968205;28;20080;-67
2024/01/30 05:41:59;;;;;;;19.02;12.05;;;;;;;;;;4978929;28;20033;-67
2024/01/30 05:44:25;;;;;;;16.17;11.57;;;;;;;;;;4977930;28;20160;-67
2024/01/30 05:46:51;;;;;;;15.90;11.07;;;;;;;;;;4978173;28;20125;-67
2024/01/30 05:49:17;;;;;;;16.35;10.88;;;;;;;;;;4977608;28;20042;-67
2024/01/30 05:51:43;;;;;;;16.95;12.07;;;;;;;;;;4977725;28;20074;-67
2024/01/30 05:54:09;;;;;;;17.38;12.32;;;;;;;;;;4977879;28;20025;-67
2024/01/30 05:56:35;;;;;;;19.35;11.32;;;;;;;;;;4979147;28;20033;-67
2024/01/30 05:59:01;;;;;;;19.08;11.80;;;;;;;;;;4978183;28;20026;-67
2024/01/30 06:01:27;;;;;;;20.70;12.13;;;;;;;;;;4977923;28;20030;-67
2024/01/30 06:03:53;;;;;;;17.77;12.10;;;;;;;;;;4977656;28;20041;-67
2024/01/30 06:06:19;;;;;;;18.58;11.52;;;;;;;;;;4978651;28;20038;-67
2024/01/30 06:08:45;;;;;;;18.33;12.23;;;;;;;;;;4966256;28;20052;-67
2024/01/30 06:11:12;;;;;;;14.63;10.45;;;;;;;;;;4977830;28;20156;-67
2024/01/30 06:13:38;;;;;;;18.33;12.07;;;;;;;;;;4977829;28;20841;-67
2024/01/30 06:16:04;;;;;;;15.75;11.68;;;;;;;;;;4977215;28;20034;-67
2024/01/30 06:18:31;;;;;;;16.75;11.50;;;;;;;;;;4977598;28;20037;-67
2024/01/30 06:20:57;;;;;;;15.68;11.32;;;;;;;;;;4976807;28;20040;-67
2024/01/30 06:23:23;;;;;;;18.05;11.18;;;;;;;;;;4978696;28;20077;-67
2024/01/30 06:25:49;;;;;;;20.08;11.75;;;;;;;;;;4975573;28;20069;-67
2024/01/30 06:28:15;;;;;;;16.30;11.52;;;;;;;;;;4978041;28;20069;-67
2024/01/30 06:30:41;;;;;;;17.85;12.02;;;;;;;;;;4978313;28;20034;-67
2024/01/30 06:33:07;;;;;;;22.40;11.43;;;;;;;;;;4977168;28;20457;-67
2024/01/30 06:35:35;;;;;;;14.18;10.98;;;;;;;;;;4977041;28;20039;-67
2024/01/30 06:38:01;;;;;;;22.15;11.50;;;;;;;;;;4977786;28;20030;-67
2024/01/30 06:40:27;;;;;;;17.50;10.88;;;;;;;;;;4978399;28;20089;-67
2024/01/30 06:42:53;;;;;;;17.48;11.63;;;;;;;;;;4977088;28;20037;-67
2024/01/30 06:45:19;;;;;;;15.75;10.30;;;;;;;;;;4977300;28;20034;-67
2024/01/30 06:47:45;;;;;;;18.63;11.18;;;;;;;;;;4977658;28;20033;-67
2024/01/30 06:50:11;;;;;;;16.35;11.32;;;;;;;;;;4977776;28;20034;-67
2024/01/30 06:52:37;;;;;;;18.15;11.23;;;;;;;;;;4978668;28;20061;-67
2024/01/30 06:55:03;;;;;;;19.02;11.52;;;;;;;;;;4980007;28;20559;-67
2024/01/30 06:57:30;;;;;;;15.55;10.18;;;;;;;;;;4980016;28;20025;-67
2024/01/30 06:59:56;;;;;;;15.05;10.05;;;;;;;;;;4980100;28;20154;-67
2024/01/30 07:02:22;;;;;;;16.63;10.30;;;;;;;;;;4980961;28;20062;-67
2024/01/30 07:04:49;;;;;;;17.80;10.50;;;;;;;;;;4981545;28;20451;-67
2024/01/30 07:07:15;;;;;;;17.23;11.15;;;;;;;;;;4981421;28;20030;-67
2024/01/30 07:09:42;;;;;;;18.60;10.90;;;;;;;;;;4980722;28;20054;-67
2024/01/30 07:12:08;;;;;;;15.27;10.38;;;;;;;;;;4980221;28;20563;-67
2024/01/30 07:14:34;;;;;;;14.38;10.02;;;;;;;;;;4980174;28;20045;-67
2024/01/30 07:17:00;;;;;;;16.17;10.45;;;;;;;;;;4980626;28;20057;-67
2024/01/30 07:19:26;;;;;;;16.75;10.93;;;;;;;;;;4979908;28;20046;-67
2024/01/30 07:21:52;;;;;;;15.10;10.32;;;;;;;;;;4980125;28;21009;-67
2024/01/30 07:24:18;;;;;;;16.38;10.52;;;;;;;;;;4979788;28;20910;-67
2024/01/30 07:26:44;;;;;;;15.80;10.38;;;;;;;;;;4978204;28;20107;-67
2024/01/30 07:29:10;;;;;;;14.18;10.15;;;;;;;;;;4978693;28;20081;-67
2024/01/30 07:31:37;;;;;;;17.00;10.20;;;;;;;;;;4978748;28;20085;-67
2024/01/30 07:34:03;;;;;;;14.70;10.82;;;;;;;;;;4965494;28;20030;-67
2024/01/30 07:36:29;;;;;;;15.52;10.25;;;;;;;;;;4979624;28;20038;-68
2024/01/30 07:38:55;;;;;;;14.38;10.82;;;;;;;;;;4979516;28;21919;-67
2024/01/30 07:41:24;;;;;;;16.90;10.95;;;;;;;;;;4983663;28;20128;-67
2024/01/30 07:43:50;;;;;;;14.27;9.25;;;;;;;;;;4983182;28;20042;-67
2024/01/30 07:46:16;;;;;;;15.23;10.32;;;;;;;;;;4984240;28;20041;-67
2024/01/30 07:48:42;;;;;;;20.98;10.85;;;;;;;;;;4964377;28;20051;-67
2024/01/30 07:51:08;;;;;;;16.52;10.77;;;;;;;;;;4983760;28;20057;-67
2024/01/30 07:53:34;;;;;;;14.55;10.20;;;;;;;;;;4982910;28;20550;-67
2024/01/30 07:56:00;;;;;;;16.02;11.13;;;;;;;;;;4983647;28;20034;-67
2024/01/30 07:58:29;;;;;;;12.60;9.43;;;;;;;;;;4983761;28;20416;-67
2024/01/30 08:00:58;;;;;;;16.10;11.27;;;;;;;;;;4972715;28;20062;-67
2024/01/30 08:03:24;;;;;;;14.88;10.75;;;;;;;;;;4971609;28;20028;-68
2024/01/30 08:05:50;;;;;;;14.25;10.57;;;;;;;;;;4971248;28;20121;-68
2024/01/30 08:08:16;;;;;;;17.95;11.15;;;;;;;;;;4972809;28;20045;-68
2024/01/30 08:10:42;;;;;;;15.45;10.32;;;;;;;;;;4971945;28;20038;-68
2024/01/30 08:13:08;;;;;;;15.60;10.30;;;;;;;;;;4973615;28;20038;-68
2024/01/30 08:15:35;;;;;;;16.55;10.20;;;;;;;;;;4972302;28;20120;-68
2024/01/30 08:18:01;;;;;;;14.80;9.65;;;;;;;;;;4972703;28;20969;-68
2024/01/30 08:20:27;;;;;;;13.35;9.88;;;;;;;;;;4957252;28;20492;-68
2024/01/30 08:22:53;;;;;;;14.27;9.63;;;;;;;;;;4972226;28;20433;-68
2024/01/30 08:25:19;;;;;;;15.20;9.95;;;;;;;;;;4972588;28;20029;-68
2024/01/30 08:27:45;;;;;;;14.75;9.85;;;;;;;;;;4971478;28;20068;-68
2024/01/30 08:30:11;;;;;;;18.15;10.77;;;;;;;;;;4972091;28;20034;-68
2024/01/30 08:32:37;;;;;;;15.60;10.15;;;;;;;;;;4971814;28;20641;-68
2024/01/30 08:35:04;;;;;;;16.40;10.35;;;;;;;;;;4971825;28;20035;-68
2024/01/30 08:37:30;;;;;;;14.45;9.48;;;;;;;;;;4958107;28;20026;-68
2024/01/30 08:39:56;;;;;;;17.02;10.27;;;;;;;;;;4970155;28;20050;-68
2024/01/30 08:42:23;;;;;;;19.08;10.55;;;;;;;;;;4971957;28;20615;-68
2024/01/30 08:44:51;;;;;;;18.67;10.32;;;;;;;;;;4955588;28;20552;-68
2024/01/30 08:47:18;;;;;;;13.07;9.40;;;;;;;;;;4971959;28;20034;-67
2024/01/30 08:49:44;;;;;;;13.88;9.32;;;;;;;;;;4971303;28;20045;-67
2024/01/30 08:52:13;;;;;;;16.98;9.65;;;;;;;;;;4971581;28;20049;-66
2024/01/30 08:54:39;;;;;;;18.52;10.05;;;;;;;;;;4970988;28;20034;-67
2024/01/30 08:57:05;;;;;;;12.80;8.38;;;;;;;;;;4970835;28;20038;-67
2024/01/30 08:59:31;;;;;;;15.35;9.30;;;;;;;;;;4971339;28;20175;-67
2024/01/30 09:01:59;;;;;;;15.73;8.38;;;;;;;;;;4971128;28;20030;-67
2024/01/30 09:04:25;;;;;;;14.20;9.20;;;;;;;;;;4970704;28;20046;-67
2024/01/30 09:06:51;;;;;;;13.90;9.88;;;;;;;;;;4971464;28;20029;-68
2024/01/30 09:09:17;;;;;;;14.20;9.50;;;;;;;;;;4972428;28;20909;-66
2024/01/30 09:11:43;;;;;;;13.90;9.25;;;;;;;;;;4972761;28;20519;-67
2024/01/30 09:14:09;;;;;;;13.80;9.35;;;;;;;;;;4971307;28;20089;-67
2024/01/30 09:16:36;;;;;;;16.02;9.02;;;;;;;;;;4972034;28;20074;-67
2024/01/30 09:19:02;;;;;;;13.88;9.70;;;;;;;;;;4971679;28;20046;-67
2024/01/30 09:21:28;;;;;;;12.75;9.13;;;;;;;;;;4972498;28;20060;-67
2024/01/30 09:24:02;;;;;;;15.48;9.20;;;;;;;;;;4972347;28;20038;-67
2024/01/30 09:26:28;;;;;;;18.13;9.95;;;;;;;;;;4970192;28;20762;-67
2024/01/30 09:28:54;;;;;;;16.95;9.32;;;;;;;;;;4972811;28;21248;-67
2024/01/30 09:31:20;;;;;;;16.85;8.85;;;;;;;;;;4969896;28;20882;-67
2024/01/30 09:33:47;;;;;;;15.18;9.63;;;;;;;;;;4972062;28;20882;-68
2024/01/30 09:36:19;;;;;;;15.77;9.77;;;;;;;;;;4970993;28;20073;-67
2024/01/30 09:38:45;;;;;;;16.15;9.48;;;;;;;;;;4971288;28;20159;-67
2024/01/30 09:41:12;;;;;;;19.10;9.88;;;;;;;;;;4970275;28;20064;-67
2024/01/30 09:43:39;;;;;;;15.10;9.80;;;;;;;;;;4970473;28;21569;-68
2024/01/30 09:46:06;;;;;;;12.82;8.75;;;;;;;;;;4970639;28;20491;-67
2024/01/30 09:48:33;;;;;;;15.95;9.82;;;;;;;;;;4969677;28;20030;-67
2024/01/30 09:50:59;;;;;;;14.63;9.00;;;;;;;;;;4971560;28;20045;-67
2024/01/30 09:53:25;;;;;;;16.38;10.15;;;;;;;;;;4968184;28;20038;-67
2024/01/30 09:55:51;;;;;;;16.92;10.82;;;;;;;;;;4969955;28;20045;-67
2024/01/30 09:58:18;;;;;;;16.77;9.75;;;;;;;;;;4948990;28;21003;-67
2024/01/30 10:00:44;;;;;;;17.10;9.93;;;;;;;;;;4968045;28;20497;-67
2024/01/30 10:03:10;;;;;;;15.57;10.10;;;;;;;;;;4970462;28;20143;-67
2024/01/30 10:05:39;;;;;;;17.73;10.55;;;;;;;;;;4969172;28;21439;-67
2024/01/30 10:08:08;;;;;;;15.05;8.82;;;;;;;;;;4969626;28;20046;-67
2024/01/30 10:10:35;;;;;;;14.73;9.57;;;;;;;;;;4954020;28;20038;-67
2024/01/30 10:13:01;;;;;;;19.35;10.48;;;;;;;;;;4968911;28;20028;-67
2024/01/30 10:15:29;;;;;;;15.57;9.70;;;;;;;;;;4951065;28;20038;-67
2024/01/30 10:17:55;;;;;;;14.90;10.23;;;;;;;;;;4968726;28;20111;-67
2024/01/30 10:20:22;;;;;;;15.00;9.50;;;;;;;;;;4967581;28;20076;-67
2024/01/30 10:22:48;;;;;;;17.85;10.07;;;;;;;;;;4968393;28;20034;-67
2024/01/30 10:25:15;;;;;;;16.92;10.02;;;;;;;;;;4967240;28;20066;-67
2024/01/30 10:27:42;;;;;;;15.93;9.93;;;;;;;;;;4970135;28;20995;-67
2024/01/30 10:30:09;;;;;;;16.73;9.75;;;;;;;;;;4952510;28;20042;-67
2024/01/30 10:32:35;;;;;;;15.27;9.82;;;;;;;;;;4967179;28;21796;-67
2024/01/30 10:35:01;;;;;;;18.58;10.13;;;;;;;;;;4966090;28;20043;-67
2024/01/30 10:37:29;;;;;;;19.48;9.60;;;;;;;;;;4967573;28;20037;-67
2024/01/30 10:39:56;;;;;;;15.25;9.60;;;;;;;;;;4967715;28;20054;-67
2024/01/30 10:42:27;;;;;;;17.70;10.00;;;;;;;;;;4970285;28;20080;-67
2024/01/30 10:44:56;;;;;;;16.85;9.48;;;;;;;;;;4970674;28;20037;-67
2024/01/30 10:47:26;;;;;;;14.43;9.95;;;;;;;;;;4970838;28;20758;-67
2024/01/30 10:49:53;;;;;;;18.42;9.93;;;;;;;;;;4970413;28;20053;-68
2024/01/30 10:52:19;;;;;;;16.55;9.85;;;;;;;;;;4969716;28;20022;-67
2024/01/30 10:54:45;;;;;;;19.02;10.13;;;;;;;;;;4969665;28;20176;-68
2024/01/30 10:57:13;;;;;;;15.35;9.38;;;;;;;;;;4970933;28;20034;-67
2024/01/30 10:59:39;;;;;;;15.23;9.77;;;;;;;;;;4969819;28;20026;-68
2024/01/30 11:02:06;;;;;;;16.80;9.10;;;;;;;;;;4970495;28;21040;-67
2024/01/30 11:04:38;;;;;;;14.27;9.15;;;;;;;;;;4970069;28;20061;-68
2024/01/30 11:07:24;;;;;;;13.65;8.20;;;;;;;;;;4969370;28;20056;-68
2024/01/30 11:09:51;;;;;;;20.25;7.65;;;;;;;;;;4970711;28;20046;-68
2024/01/30 11:12:17;;;;;;;13.27;7.32;;;;;;;;;;4969352;28;20033;-67
2024/01/30 11:14:43;;;;;;;15.35;8.05;;;;;;;;;;4970305;28;20034;-67
2024/01/30 11:17:12;;;;;;;17.95;8.48;;;;;;;;;;4971139;28;20034;-67
2024/01/30 11:19:38;;;;;;;17.85;7.80;;;;;;;;;;4970152;28;20038;-68
2024/01/30 11:22:07;;;;;;;15.50;6.85;;;;;;;;;;4970046;28;20057;-68
2024/01/30 11:24:40;;;;;;;13.27;6.30;;;;;;;;;;4970015;28;20044;-68
2024/01/30 11:27:09;;;;;;;15.68;5.82;;;;;;;;;;4970089;28;20030;-68
2024/01/30 11:29:35;;;;;;;14.50;6.45;;;;;;;;;;4969839;28;20604;-68
2024/01/30 11:32:02;;;;;;;16.27;6.47;;;;;;;;;;4970776;28;20049;-68
2024/01/30 11:34:28;;;;;;;16.25;5.47;;;;;;;;;;4970190;28;20456;-67
2024/01/30 11:36:59;;;;;;;13.93;6.78;;;;;;;;;;4971194;28;20026;-67
2024/01/30 11:39:28;;;;;;;10.40;4.97;;;;;;;;;;4972669;28;20022;-68
2024/01/30 11:41:55;;;;;;;11.07;5.32;;;;;;;;;;4973084;28;20034;-68
2024/01/30 11:44:21;;;;;;;15.10;7.03;;;;;;;;;;4973503;28;20070;-68
2024/01/30 11:46:48;;;;;;;10.15;4.38;;;;;;;;;;4973090;28;20381;-68
2024/01/30 11:49:15;;;;;;;11.63;4.97;;;;;;;;;;4973302;28;20800;-68
2024/01/30 11:51:41;;;;;;;13.18;4.75;;;;;;;;;;4973699;28;20034;-68
2024/01/30 11:54:08;;;;;;;6.93;3.97;;;;;;;;;;4972166;28;20496;-68
2024/01/30 11:56:34;;;;;;;14.70;3.80;;;;;;;;;;4972387;28;20038;-68
2024/01/30 11:59:00;;;;;;;8.82;3.22;;;;;;;;;;4972551;28;20030;-68
2024/01/30 12:01:27;;;;;;;7.20;2.35;;;;;;;;;;4972757;28;20089;-68
2024/01/30 12:03:53;;;;;;;7.95;2.10;;;;;;;;;;4966358;28;20030;-68
2024/01/30 12:06:19;;;;;;;6.53;2.13;;;;;;;;;;4967104;28;20045;-68
2024/01/30 12:09:05;;;;;;;8.23;1.90;;;;;;;;;;4948361;28;20089;-68
2024/01/30 12:11:31;;;;;;;3.58;1.38;;;;;;;;;;4967175;28;20025;-68
2024/01/30 12:13:57;;;;;;;3.85;0.90;;;;;;;;;;4967872;28;20034;-68
2024/01/30 12:16:23;;;;;;;4.72;0.90;;;;;;;;;;4968284;28;20033;-68
2024/01/30 12:18:49;;;;;;;3.25;1.48;;;;;;;;;;4970175;28;20078;-66
2024/01/30 12:21:18;;;;;;;5.90;0.88;;;;;;;;;;4967692;28;20038;-66
2024/01/30 12:23:45;;;;;;;4.22;1.40;;;;;;;;;;4967502;28;20480;-68
2024/01/30 12:26:11;;;;;;;6.70;1.58;;;;;;;;;;4967156;28;20085;-68
2024/01/30 12:28:37;;;;;;;2.30;0.70;;;;;;;;;;4965952;28;20035;-69
2024/01/30 12:31:04;;;;;;;6.22;1.00;;;;;;;;;;4967359;28;20073;-69
2024/01/30 12:33:31;;;;;;;4.25;0.90;;;;;;;;;;4967299;28;20033;-68
2024/01/30 12:35:57;;;;;;;4.30;0.82;;;;;;;;;;4965935;28;20145;-69
2024/01/30 12:38:24;;;;;;;4.50;1.13;;;;;;;;;;4967024;28;20034;-68
2024/01/30 12:40:55;;;;;;;4.30;1.38;;;;;;;;;;4966546;28;20049;-68
2024/01/30 12:43:22;;;;;;;5.63;0.98;;;;;;;;;;4967185;28;20033;-66
2024/01/30 12:45:48;;;;;;;5.18;1.15;;;;;;;;;;4954647;28;20033;-66
2024/01/30 12:48:15;;;;;;;2.67;0.73;;;;;;;;;;4969859;28;20041;-66
2024/01/30 12:50:42;;;;;;;4.03;0.90;;;;;;;;;;4960529;28;20089;-66
2024/01/30 12:53:09;;;;;;;6.10;0.80;;;;;;;;;;4971761;28;20037;-66
2024/01/30 12:55:35;;;;;;;2.03;0.75;;;;;;;;;;4971640;28;20468;-66
2024/01/30 12:58:01;;;;;;;5.35;0.90;;;;;;;;;;4971992;28;20037;-66
2024/01/30 13:00:27;;;;;;;4.30;0.80;;;;;;;;;;4970591;28;20033;-66
2024/01/30 13:02:53;;;;;;;3.42;0.90;;;;;;;;;;4972007;28;20081;-66
2024/01/30 13:05:20;;;;;;;4.82;0.70;;;;;;;;;;4965341;28;20042;-66
2024/01/30 13:07:46;;;;;;;1.42;0.63;;;;;;;;;;4967710;28;20022;-66
2024/01/30 13:10:12;;;;;;;3.08;0.90;;;;;;;;;;4966515;28;20080;-66
2024/01/30 13:12:38;;;;;;;3.40;1.00;;;;;;;;;;4965917;28;20121;-66
2024/01/30 13:15:05;;;;;;;3.00;1.02;;;;;;;;;;4950074;28;20040;-68
2024/01/30 13:17:31;;;;;;;3.47;0.93;;;;;;;;;;4965471;28;20041;-68
2024/01/30 13:19:57;;;;;;;5.35;0.60;;;;;;;;;;4965468;28;20038;-66
2024/01/30 13:22:24;;;;;;;2.33;0.47;;;;;;;;;;4965500;28;20447;-66
2024/01/30 13:24:50;;;;;;;3.63;0.90;;;;;;;;;;4948458;28;20061;-66
2024/01/30 13:27:17;;;;;;;4.03;1.00;;;;;;;;;;4967290;28;20038;-66
2024/01/30 13:29:43;;;;;;;4.20;0.93;;;;;;;;;;4967412;28;20534;-66
2024/01/30 13:32:09;;;;;;;1.98;0.68;;;;;;;;;;4967424;28;20732;-66
2024/01/30 13:34:35;;;;;;;2.63;0.73;;;;;;;;;;4964545;28;21909;-66
2024/01/30 13:37:01;;;;;;;2.45;0.70;;;;;;;;;;4967065;28;20982;-66
2024/01/30 13:39:29;;;;;;;3.03;0.60;;;;;;;;;;4966728;28;20042;-66
2024/01/30 13:41:55;;;;;;;3.17;0.77;;;;;;;;;;4967156;28;20044;-66
2024/01/30 13:44:21;;;;;;;3.83;1.10;;;;;;;;;;4967428;28;20030;-66
2024/01/30 13:46:47;;;;;;;2.42;0.70;;;;;;;;;;4966157;28;20103;-66
2024/01/30 13:49:13;;;;;;;4.13;0.70;;;;;;;;;;4966073;28;20026;-66
2024/01/30 13:51:39;;;;;;;2.50;0.82;;;;;;;;;;4965903;28;20038;-66
2024/01/30 13:54:05;;;;;;;3.70;1.00;;;;;;;;;;4965719;28;20088;-66
2024/01/30 13:56:31;;;;;;;3.75;0.85;;;;;;;;;;4968017;28;20038;-66
2024/01/30 13:58:57;;;;;;;3.40;0.70;;;;;;;;;;4969573;28;20500;-66
2024/01/30 14:01:24;;;;;;;3.47;0.90;;;;;;;;;;4969726;28;20073;-66
2024/01/30 14:03:50;;;;;;;4.88;0.70;;;;;;;;;;4970617;28;20065;-67
2024/01/30 14:06:16;;;;;;;4.13;0.80;;;;;;;;;;4952943;28;20042;-67
2024/01/30 14:08:42;;;;;;;5.82;1.17;;;;;;;;;;4950965;28;20164;-67
2024/01/30 14:11:08;;;;;;;3.53;0.70;;;;;;;;;;4971816;28;20127;-66
2024/01/30 14:13:34;;;;;;;3.80;0.70;;;;;;;;;;4968117;28;20042;-67
2024/01/30 14:16:00;;;;;;;4.30;0.80;;;;;;;;;;4970071;28;20026;-66
2024/01/30 14:18:26;;;;;;;1.77;0.55;;;;;;;;;;4970660;28;20033;-66